• Join FlightAware (Why Join?)
  • Login
  • US Flag 
09:23AM EDT


 

Airport Tracker/Info


-or-


 

Live Flight TrackerFlight Track Log ✈ N52712 ✈ 11-Mar-2014 ✈ KBED - KHYA

Flight Track Log - Related Links

Times and Time Zones

All times are in EDT time to prevent confusion due to time zone crossing. See the N52712 flight status page for this flight to view local times or setup timezone preferences in your user account.

Time Position Orientation Groundspeed Altitude Reporting Facility
EDT Latitude Longitude Course Direction KTS MPH feet Rate Location/Type
02:44PM 42.4667 -71.3000 360° North 65 75 800  Level KA90
02:44PM 42.4667 -71.3000 160° South 79 91 1,000 660 Climbing KA90
02:45PM 42.4333 -71.2833 160° South 95 109 1,700 660 Climbing KA90
02:46PM 42.4167 -71.2667 144° Southeast 95 109 2,400 660 Climbing KA90
02:47PM 42.3833 -71.2667 180° South 95 109 3,100 720 Climbing KA90
02:48PM 42.3714 -71.2556 146° Southeast 100 115 3,700 660 Climbing Boston Center
02:49PM 42.3458 -71.2333 147° Southeast 107 123 4,400 660 Climbing Boston Center
02:50PM 42.3175 -71.2114 150° Southeast 111 128 5,100 480 Climbing Boston Center
02:51PM 42.2878 -71.1864 148° Southeast 125 144 5,400 120 Climbing Boston Center
02:52PM 42.2525 -71.1581 149° Southeast 143 165 5,400  Level Boston Center
02:53PM 42.2150 -71.1322 153° Southeast 141 162 5,500  Climbing Boston Center
02:54PM 42.1803 -71.1081 153° Southeast 140 161 5,500  Level Boston Center
02:55PM 42.1506 -71.0689 136° Southeast 147 169 5,500  Level Boston Center
02:56PM 42.1167 -71.0167 131° Southeast 146 168 5,600 60 Climbing KA90
02:57PM 42.0833 -70.9833 143° Southeast 152 175 5,700 -60 Climbing KA90
02:58PM 42.0500 -70.9500 143° Southeast 140 161 5,500 -180 Descending KA90
02:59PM 42.0333 -70.9167 124° Southeast 136 157 5,400  Descending KA90
03:01PM 41.9744 -70.8358 134° Southeast 160 184 5,500  Climbing Boston Center
03:02PM 41.9450 -70.7925 132° Southeast 159 183 5,500  Level Boston Center
03:03PM 41.9192 -70.7483 128° Southeast 154 177 5,500  Level Boston Center
03:04PM 41.8933 -70.7056 129° Southeast 150 173 5,500  Level Boston Center
03:05PM 41.8675 -70.6625 129° Southeast 149 171 5,500  Level Boston Center
03:06PM 41.8356 -70.6119 130° Southeast 146 168 5,500  Level Boston Center
03:07PM 41.8100 -70.5714 130° Southeast 144 166 5,500 -60 Level Boston Center
03:08PM 41.7833 -70.5289 130° Southeast 150 173 5,400 -300 Descending Boston Center
03:09PM 41.7561 -70.4872 131° Southeast 150 173 4,900 -720 Descending Boston Center
03:10PM 41.7319 -70.4403 125° Southeast 152 175 4,000 -1,080 Descending Boston Center
03:11PM 41.7144 -70.3950 117° Southeast 146 168 2,800 -1,140 Descending Boston Center
03:12PM 41.7025 -70.3519 110° East 135 155 1,800 -840 Descending Boston Center
03:13PM 41.6914 -70.3131 111° Southeast 124 143 1,100 -420 Descending Boston Center
03:14PM 41.6775 -70.2747 116° Southeast 117 135 1,000 -300 Descending Boston Center
03:15PM 41.6814 -70.2572 73° East 99 114 600 -420 Descending Boston Center
03:16PM 41.6722 -70.2706 227° Southwest 79 91 200  Descending Boston Center
03:17PM 41.6619 -70.2867 230° Southwest 60 69 700 540 Climbing Boston Center
03:18PM 41.6639 -70.3117 276° West 73 84 1,400 780 Climbing Boston Center
03:19PM 41.6719 -70.3367 293° West 75 86 2,300 720 Climbing Boston Center
03:20PM 41.6767 -70.3606 285° West 72 83 2,900 600 Climbing Boston Center
03:21PM 41.6697 -70.3856 250° West 72 83 3,600 540 Climbing Boston Center
03:22PM 41.6653 -70.4142 258° West 71 82 4,100 480 Climbing Boston Center